This is the latest recevied weather packets stored in our database for station/object HB9EFX-14. If no packets are shown the sender has not sent any weather packets the latest 1 day(s).
| Time | Temp. | Humidity | Pressure | Rain* | Wind** | Luminosity | Snow |
|---|---|---|---|---|---|---|---|
| 1777952099 | 7.22° C | - | - | 0 mm | 2.68 m/s, 96° | - | - |
| 1777951499 | 7.22° C | - | - | 0 mm | 1.79 m/s, 101° | - | - |
| 1777950895 | 7.78° C | - | - | 0 mm | 2.24 m/s, 94° | - | - |
| 1777950295 | 7.22° C | - | - | 0 mm | 2.24 m/s, 103° | - | - |
| 1777949696 | 7.22° C | - | - | 0 mm | 1.79 m/s, 132° | - | - |
| 1777949095 | 7.22° C | - | - | 0 mm | 2.68 m/s, 108° | - | - |
| 1777948495 | 7.22° C | - | - | 0 mm | 2.24 m/s, 106° | - | - |
| 1777947892 | 7.22° C | - | - | 0 mm | 3.13 m/s, 89° | - | - |
| 1777947292 | 7.78° C | - | - | 0 mm | 1.79 m/s, 97° | - | - |
| 1777946692 | 7.22° C | - | - | 0 mm | 2.24 m/s, 95° | - | - |
| 1777946091 | 7.22° C | - | - | 0 mm | 2.24 m/s, 97° | - | - |
| 1777945493 | 7.78° C | - | - | 0 mm | 1.34 m/s, 95° | - | - |
| 1777944887 | 7.78° C | - | - | 0 mm | 1.79 m/s, 93° | - | - |
| 1777944287 | 7.78° C | - | - | 0 mm | 2.24 m/s, 92° | - | - |
| 1777943688 | 7.22° C | - | - | 0 mm | 2.24 m/s, 92° | - | - |
| 1777943087 | 7.22° C | - | - | 0 mm | 1.79 m/s, 97° | - | - |
| 1777942488 | 7.22° C | - | - | 0 mm | 2.68 m/s, 96° | - | - |
| 1777941883 | 7.78° C | - | - | 0 mm | 2.24 m/s, 95° | - | - |
| 1777941283 | 7.78° C | - | - | 0 mm | 1.79 m/s, 100° | - | - |
| 1777940683 | 7.78° C | - | - | 0 mm | 1.79 m/s, 92° | - | - |
| 1777940083 | 7.78° C | - | - | 0 mm | 2.24 m/s, 93° | - | - |
| 1777939483 | 7.78° C | - | - | 0 mm | 1.79 m/s, 93° | - | - |
| 1777938880 | 7.78° C | - | - | 0 mm | 0.89 m/s, 100° | - | - |
| 1777938280 | 8.33° C | - | - | 0 mm | 1.79 m/s, 93° | - | - |
| 1777937680 | 8.33° C | - | - | 0 mm | 1.79 m/s, 93° | - | - |
* Rain latest hour (hover to see other rain measurements)
** Current wind speed in m/s (hover to see current wind gust speed)